sensor_id;sensor_type;location;lat;lon;timestamp;pressure;altitude;pressure_sealevel;temperature;humidity
51245;BME280;37840;47.562;18.738;2023-02-28T00:01:21;100783.56;;;0.90;59.56
51245;BME280;37840;47.562;18.738;2023-02-28T00:03:48;100777.41;;;0.92;59.55
51245;BME280;37840;47.562;18.738;2023-02-28T00:06:14;100780.06;;;0.89;59.23
51245;BME280;37840;47.562;18.738;2023-02-28T00:08:40;100785.22;;;0.95;59.14
51245;BME280;37840;47.562;18.738;2023-02-28T00:11:08;100786.97;;;0.95;59.10
51245;BME280;37840;47.562;18.738;2023-02-28T00:13:37;100784.38;;;0.93;58.92
51245;BME280;37840;47.562;18.738;2023-02-28T00:16:08;100787.81;;;0.95;58.72
51245;BME280;37840;47.562;18.738;2023-02-28T00:18:35;100789.50;;;0.99;58.39
51245;BME280;37840;47.562;18.738;2023-02-28T00:21:01;100792.19;;;0.98;58.53
51245;BME280;37840;47.562;18.738;2023-02-28T00:23:27;100794.72;;;1.02;58.75
51245;BME280;37840;47.562;18.738;2023-02-28T00:25:54;100799.22;;;0.93;59.75
51245;BME280;37840;47.562;18.738;2023-02-28T00:28:20;100800.06;;;0.95;61.46
51245;BME280;37840;47.562;18.738;2023-02-28T00:30:46;100801.91;;;0.88;64.08
51245;BME280;37840;47.562;18.738;2023-02-28T00:33:13;100809.81;;;0.85;64.17
51245;BME280;37840;47.562;18.738;2023-02-28T00:35:39;100808.16;;;0.79;62.87
51245;BME280;37840;47.562;18.738;2023-02-28T00:38:05;100813.44;;;0.75;62.50
51245;BME280;37840;47.562;18.738;2023-02-28T00:40:31;100812.53;;;0.79;63.61
51245;BME280;37840;47.562;18.738;2023-02-28T00:42:57;100816.00;;;0.78;64.60
51245;BME280;37840;47.562;18.738;2023-02-28T00:45:23;100821.25;;;0.79;64.04
51245;BME280;37840;47.562;18.738;2023-02-28T00:47:49;100816.06;;;0.73;63.75
51245;BME280;37840;47.562;18.738;2023-02-28T00:50:19;100815.19;;;0.74;63.78
51245;BME280;37840;47.562;18.738;2023-02-28T00:52:46;100821.31;;;0.73;64.17
51245;BME280;37840;47.562;18.738;2023-02-28T00:55:13;100810.91;;;0.69;64.61
51245;BME280;37840;47.562;18.738;2023-02-28T00:57:38;100818.75;;;0.69;64.77
51245;BME280;37840;47.562;18.738;2023-02-28T01:00:06;100813.53;;;0.70;64.84
51245;BME280;37840;47.562;18.738;2023-02-28T01:02:33;100813.41;;;0.76;65.36
51245;BME280;37840;47.562;18.738;2023-02-28T01:04:59;100815.22;;;0.73;67.45
51245;BME280;37840;47.562;18.738;2023-02-28T01:07:25;100821.31;;;0.72;66.12
51245;BME280;37840;47.562;18.738;2023-02-28T01:09:50;100822.16;;;0.75;65.67
51245;BME280;37840;47.562;18.738;2023-02-28T01:12:16;100821.41;;;0.66;66.38
51245;BME280;37840;47.562;18.738;2023-02-28T01:14:42;100820.63;;;0.60;66.72
51245;BME280;37840;47.562;18.738;2023-02-28T01:17:09;100818.88;;;0.59;66.63
51245;BME280;37840;47.562;18.738;2023-02-28T01:19:35;100822.66;;;0.37;67.51
51245;BME280;37840;47.562;18.738;2023-02-28T01:22:02;100824.28;;;0.44;66.65
51245;BME280;37840;47.562;18.738;2023-02-28T01:24:28;100825.22;;;0.42;66.17
51245;BME280;37840;47.562;18.738;2023-02-28T01:26:54;100822.59;;;0.40;65.74
51245;BME280;37840;47.562;18.738;2023-02-28T01:29:20;100821.66;;;0.47;65.20
51245;BME280;37840;47.562;18.738;2023-02-28T01:31:46;100821.69;;;0.44;66.56
51245;BME280;37840;47.562;18.738;2023-02-28T01:34:12;100828.59;;;0.50;67.00
51245;BME280;37840;47.562;18.738;2023-02-28T01:36:38;100817.22;;;0.51;66.82
51245;BME280;37840;47.562;18.738;2023-02-28T01:39:04;100815.53;;;0.48;67.80
51245;BME280;37840;47.562;18.738;2023-02-28T01:41:32;100821.62;;;0.49;67.32
51245;BME280;37840;47.562;18.738;2023-02-28T01:46:33;100815.53;;;0.48;67.28
51245;BME280;37840;47.562;18.738;2023-02-28T01:49:19;100814.59;;;0.54;66.69
51245;BME280;37840;47.562;18.738;2023-02-28T01:51:50;100804.91;;;0.59;66.18
51245;BME280;37840;47.562;18.738;2023-02-28T01:54:22;100811.84;;;0.65;65.98
51245;BME280;37840;47.562;18.738;2023-02-28T01:56:55;100813.63;;;0.59;67.32
51245;BME280;37840;47.562;18.738;2023-02-28T01:59:36;100821.47;;;0.63;67.48
51245;BME280;37840;47.562;18.738;2023-02-28T02:02:04;100818.78;;;0.66;67.17
51245;BME280;37840;47.562;18.738;2023-02-28T02:04:38;100812.69;;;0.65;67.55
51245;BME280;37840;47.562;18.738;2023-02-28T02:07:08;100817.94;;;0.64;68.08
51245;BME280;37840;47.562;18.738;2023-02-28T02:09:34;100809.28;;;0.58;67.22
51245;BME280;37840;47.562;18.738;2023-02-28T02:12:07;100816.25;;;0.59;67.70
51245;BME280;37840;47.562;18.738;2023-02-28T02:15:16;100807.47;;;0.64;67.60
51245;BME280;37840;47.562;18.738;2023-02-28T02:17:45;100808.38;;;0.63;67.74
51245;BME280;37840;47.562;18.738;2023-02-28T02:37:21;100810.06;;;0.67;64.84
51245;BME280;37840;47.562;18.738;2023-02-28T02:40:17;100810.00;;;0.71;65.16
51245;BME280;37840;47.562;18.738;2023-02-28T02:45:25;100805.59;;;0.75;65.54
51245;BME280;37840;47.562;18.738;2023-02-28T02:47:53;100810.78;;;0.76;65.76
51245;BME280;37840;47.562;18.738;2023-02-28T02:50:43;100810.84;;;0.72;66.11
51245;BME280;37840;47.562;18.738;2023-02-28T02:53:11;100805.56;;;0.76;65.79
51245;BME280;37840;47.562;18.738;2023-02-28T02:55:43;100801.22;;;0.77;65.74
51245;BME280;37840;47.562;18.738;2023-02-28T02:58:14;100810.84;;;0.73;65.95
51245;BME280;37840;47.562;18.738;2023-02-28T03:00:55;100806.47;;;0.75;64.07
51245;BME280;37840;47.562;18.738;2023-02-28T03:03:23;100811.62;;;0.78;63.75
51245;BME280;37840;47.562;18.738;2023-02-28T03:05:57;100807.31;;;0.76;63.69
51245;BME280;37840;47.562;18.738;2023-02-28T03:08:24;100807.22;;;0.82;63.89
51245;BME280;37840;47.562;18.738;2023-02-28T03:10:51;100814.22;;;0.83;64.44
51245;BME280;37840;47.562;18.738;2023-02-28T03:16:31;100816.84;;;0.83;63.76
51245;BME280;37840;47.562;18.738;2023-02-28T03:24:35;100824.53;;;0.94;64.54
51245;BME280;37840;47.562;18.738;2023-02-28T03:27:16;100821.00;;;0.96;65.21
51245;BME280;37840;47.562;18.738;2023-02-28T03:29:56;100821.00;;;0.96;64.85
51245;BME280;37840;47.562;18.738;2023-02-28T03:32:33;100821.94;;;0.92;65.24
51245;BME280;37840;47.562;18.738;2023-02-28T03:37:37;100828.88;;;0.95;66.05
51245;BME280;37840;47.562;18.738;2023-02-28T03:40:14;100825.47;;;0.90;65.73
51245;BME280;37840;47.562;18.738;2023-02-28T03:42:45;100821.09;;;0.90;65.38
51245;BME280;37840;47.562;18.738;2023-02-28T03:45:19;100820.16;;;0.94;65.19
51245;BME280;37840;47.562;18.738;2023-02-28T03:47:55;100825.41;;;0.91;65.77
51245;BME280;37840;47.562;18.738;2023-02-28T03:50:31;100821.16;;;0.86;65.87
51245;BME280;37840;47.562;18.738;2023-02-28T03:53:08;100824.56;;;0.91;65.88
51245;BME280;37840;47.562;18.738;2023-02-28T03:55:48;100815.78;;;0.93;65.98
51245;BME280;37840;47.562;18.738;2023-02-28T04:01:19;100822.78;;;0.93;66.81
51245;BME280;37840;47.562;18.738;2023-02-28T04:03:45;100824.63;;;0.86;66.85
51245;BME280;37840;47.562;18.738;2023-02-28T04:06:17;100825.47;;;0.88;67.04
51245;BME280;37840;47.562;18.738;2023-02-28T04:08:44;100821.97;;;0.89;66.83
51245;BME280;37840;47.562;18.738;2023-02-28T04:11:27;100822.84;;;0.90;66.81
51245;BME280;37840;47.562;18.738;2023-02-28T04:13:55;100820.22;;;0.90;66.87
51245;BME280;37840;47.562;18.738;2023-02-28T04:16:21;100816.63;;;0.95;67.14
51245;BME280;37840;47.562;18.738;2023-02-28T04:18:47;100820.09;;;0.97;67.89
51245;BME280;37840;47.562;18.738;2023-02-28T04:21:13;100814.94;;;0.91;68.40
51245;BME280;37840;47.562;18.738;2023-02-28T04:23:39;100814.06;;;0.94;68.01
51245;BME280;37840;47.562;18.738;2023-02-28T04:26:05;100820.16;;;0.94;67.83
51245;BME280;37840;47.562;18.738;2023-02-28T04:28:32;100816.63;;;0.98;67.15
51245;BME280;37840;47.562;18.738;2023-02-28T04:31:03;100816.63;;;0.95;66.96
51245;BME280;37840;47.562;18.738;2023-02-28T04:33:31;100810.47;;;0.99;66.37
51245;BME280;37840;47.562;18.738;2023-02-28T04:36:08;100808.75;;;1.00;65.55
51245;BME280;37840;47.562;18.738;2023-02-28T04:38:36;100815.63;;;1.06;65.21
51245;BME280;37840;47.562;18.738;2023-02-28T04:41:03;100805.97;;;1.09;64.77
51245;BME280;37840;47.562;18.738;2023-02-28T04:43:29;100807.69;;;1.12;64.98
51245;BME280;37840;47.562;18.738;2023-02-28T04:45:56;100805.06;;;1.12;65.19
51245;BME280;37840;47.562;18.738;2023-02-28T04:48:24;100812.94;;;1.10;66.02
51245;BME280;37840;47.562;18.738;2023-02-28T04:50:51;100807.72;;;1.09;65.63
51245;BME280;37840;47.562;18.738;2023-02-28T04:53:17;100807.75;;;1.07;65.68
51245;BME280;37840;47.562;18.738;2023-02-28T04:55:44;100806.84;;;1.08;65.55
51245;BME280;37840;47.562;18.738;2023-02-28T04:58:10;100809.44;;;1.11;65.62
51245;BME280;37840;47.562;18.738;2023-02-28T05:00:36;100810.28;;;1.12;66.04
51245;BME280;37840;47.562;18.738;2023-02-28T05:03:02;100808.47;;;1.17;65.37
51245;BME280;37840;47.562;18.738;2023-02-28T05:05:28;100812.75;;;1.21;66.22
51245;BME280;37840;47.562;18.738;2023-02-28T05:07:53;100816.31;;;1.17;66.94
51245;BME280;37840;47.562;18.738;2023-02-28T05:10:22;100815.47;;;1.16;66.13
51245;BME280;37840;47.562;18.738;2023-02-28T05:12:48;100816.31;;;1.17;65.63
51245;BME280;37840;47.562;18.738;2023-02-28T05:15:15;100818.06;;;1.19;65.43
51245;BME280;37840;47.562;18.738;2023-02-28T05:17:42;100817.16;;;1.20;64.96
51245;BME280;37840;47.562;18.738;2023-02-28T05:20:09;100824.16;;;1.18;64.91
51245;BME280;37840;47.562;18.738;2023-02-28T05:22:40;100825.03;;;1.19;65.51
51245;BME280;37840;47.562;18.738;2023-02-28T05:25:08;100818.94;;;1.17;65.31
51245;BME280;37840;47.562;18.738;2023-02-28T05:27:36;100832.03;;;1.18;64.17
51245;BME280;37840;47.562;18.738;2023-02-28T05:30:03;100833.72;;;1.21;63.92
51245;BME280;37840;47.562;18.738;2023-02-28T05:32:29;100836.38;;;1.19;63.75
51245;BME280;37840;47.562;18.738;2023-02-28T05:34:55;100839.00;;;1.19;63.85
51245;BME280;37840;47.562;18.738;2023-02-28T05:37:21;100842.47;;;1.21;63.14
51245;BME280;37840;47.562;18.738;2023-02-28T05:39:48;100845.03;;;1.25;62.54
51245;BME280;37840;47.562;18.738;2023-02-28T05:42:13;100839.78;;;1.26;62.44
51245;BME280;37840;47.562;18.738;2023-02-28T05:44:39;100839.75;;;1.28;61.88
51245;BME280;37840;47.562;18.738;2023-02-28T05:47:05;100844.13;;;1.27;62.10
51245;BME280;37840;47.562;18.738;2023-02-28T05:49:31;100849.34;;;1.29;62.77
51245;BME280;37840;47.562;18.738;2023-02-28T05:51:57;100850.16;;;1.32;62.96
51245;BME280;37840;47.562;18.738;2023-02-28T05:54:23;100850.13;;;1.34;62.74
51245;BME280;37840;47.562;18.738;2023-02-28T05:56:49;100847.47;;;1.35;62.58
51245;BME280;37840;47.562;18.738;2023-02-28T05:59:15;100850.09;;;1.37;63.08
51245;BME280;37840;47.562;18.738;2023-02-28T06:01:43;100853.56;;;1.37;63.24
51245;BME280;37840;47.562;18.738;2023-02-28T06:04:19;100857.06;;;1.38;62.54
51245;BME280;37840;47.562;18.738;2023-02-28T06:06:48;100863.13;;;1.41;61.91
51245;BME280;37840;47.562;18.738;2023-02-28T06:09:15;100865.66;;;1.48;61.19
51245;BME280;37840;47.562;18.738;2023-02-28T06:11:41;100866.47;;;1.51;60.38
51245;BME280;37840;47.562;18.738;2023-02-28T06:14:09;100857.72;;;1.52;59.93
51245;BME280;37840;47.562;18.738;2023-02-28T06:16:39;100861.16;;;1.56;59.25
51245;BME280;37840;47.562;18.738;2023-02-28T06:19:05;100854.97;;;1.60;58.81
51245;BME280;37840;47.562;18.738;2023-02-28T06:21:31;100852.22;;;1.68;58.43
51245;BME280;37840;47.562;18.738;2023-02-28T06:23:58;100853.87;;;1.73;59.01
51245;BME280;37840;47.562;18.738;2023-02-28T06:26:24;100859.97;;;1.75;59.15
51245;BME280;37840;47.562;18.738;2023-02-28T06:28:51;100859.00;;;1.79;58.74
51245;BME280;37840;47.562;18.738;2023-02-28T06:31:17;100867.72;;;1.83;58.48
51245;BME280;37840;47.562;18.738;2023-02-28T06:33:44;100869.41;;;1.86;58.33
51245;BME280;37840;47.562;18.738;2023-02-28T06:36:12;100871.00;;;1.93;58.25
51245;BME280;37840;47.562;18.738;2023-02-28T06:38:39;100877.94;;;1.98;58.42
51245;BME280;37840;47.562;18.738;2023-02-28T06:41:06;100871.72;;;2.02;57.80
51245;BME280;37840;47.562;18.738;2023-02-28T06:43:37;100871.66;;;2.07;57.20
51245;BME280;37840;47.562;18.738;2023-02-28T06:46:07;100877.66;;;2.14;56.32
51245;BME280;37840;47.562;18.738;2023-02-28T06:48:34;100876.69;;;2.18;56.62
51245;BME280;37840;47.562;18.738;2023-02-28T06:53:29;100877.78;;;2.53;55.26
51245;BME280;37840;47.562;18.738;2023-02-28T06:55:55;100875.34;;;2.87;53.25
51245;BME280;37840;47.562;18.738;2023-02-28T06:58:21;100864.06;;;3.21;52.36
51245;BME280;37840;47.562;18.738;2023-02-28T07:00:51;100863.81;;;3.69;51.32
51245;BME280;37840;47.562;18.738;2023-02-28T07:03:18;100868.03;;;4.43;49.17
51245;BME280;37840;47.562;18.738;2023-02-28T07:05:44;100865.69;;;4.95;46.41
51245;BME280;37840;47.562;18.738;2023-02-28T07:08:11;100871.19;;;5.44;45.44
51245;BME280;37840;47.562;18.738;2023-02-28T07:10:38;100873.97;;;5.67;44.12
51245;BME280;37840;47.562;18.738;2023-02-28T07:13:05;100875.94;;;5.87;44.65
51245;BME280;37840;47.562;18.738;2023-02-28T07:15:31;100879.47;;;6.40;43.24
51245;BME280;37840;47.562;18.738;2023-02-28T07:17:57;100881.84;;;6.94;42.69
51245;BME280;37840;47.562;18.738;2023-02-28T07:23:08;100875.97;;;7.33;41.09
51245;BME280;37840;47.562;18.738;2023-02-28T07:25:34;100888.75;;;7.44;40.29
51245;BME280;37840;47.562;18.738;2023-02-28T07:27:59;100875.56;;;7.65;39.14
51245;BME280;37840;47.562;18.738;2023-02-28T07:30:25;100881.03;;;7.60;39.03
51245;BME280;37840;47.562;18.738;2023-02-28T07:32:51;100877.28;;;8.08;38.75
51245;BME280;37840;47.562;18.738;2023-02-28T07:35:17;100873.88;;;8.47;37.92
51245;BME280;37840;47.562;18.738;2023-02-28T07:37:44;100877.34;;;8.68;36.47
51245;BME280;37840;47.562;18.738;2023-02-28T07:40:11;100889.09;;;8.63;37.23
51245;BME280;37840;47.562;18.738;2023-02-28T07:42:37;100885.16;;;8.52;38.98
51245;BME280;37840;47.562;18.738;2023-02-28T07:45:04;100885.97;;;8.32;38.68
51245;BME280;37840;47.562;18.738;2023-02-28T07:47:31;100889.44;;;8.14;39.23
51245;BME280;37840;47.562;18.738;2023-02-28T07:49:57;100891.06;;;7.96;40.20
51245;BME280;37840;47.562;18.738;2023-02-28T07:52:24;100885.72;;;7.75;37.82
51245;BME280;37840;47.562;18.738;2023-02-28T07:54:50;100894.28;;;7.60;37.71
51245;BME280;37840;47.562;18.738;2023-02-28T07:57:16;100890.19;;;7.53;39.30
51245;BME280;37840;47.562;18.738;2023-02-28T07:59:42;100895.94;;;7.63;38.45
51245;BME280;37840;47.562;18.738;2023-02-28T08:02:18;100903.59;;;7.70;38.53
51245;BME280;37840;47.562;18.738;2023-02-28T08:04:44;100887.16;;;7.84;38.77
51245;BME280;37840;47.562;18.738;2023-02-28T08:07:13;100891.31;;;7.90;36.78
51245;BME280;37840;47.562;18.738;2023-02-28T08:09:39;100897.28;;;7.95;36.70
51245;BME280;37840;47.562;18.738;2023-02-28T08:12:06;100891.66;;;7.82;36.68
51245;BME280;37840;47.562;18.738;2023-02-28T08:14:33;100897.75;;;7.84;35.61
51245;BME280;37840;47.562;18.738;2023-02-28T08:16:59;100896.59;;;7.69;36.93
51245;BME280;37840;47.562;18.738;2023-02-28T08:19:25;100891.16;;;7.50;37.99
51245;BME280;37840;47.562;18.738;2023-02-28T08:21:51;100892.25;;;7.67;37.18
51245;BME280;37840;47.562;18.738;2023-02-28T10:47:52;100825.94;;;9.28;36.72
51245;BME280;37840;47.562;18.738;2023-02-28T10:50:50;100825.94;;;9.28;36.72
